LFKBLIMF

Guest
Details From LFKB - Bastia Poretta
To LIMF - Torino Caselle
Flight Number -
Tags generated
Created
Modified
Stats Distance 179 nm / 331 km
Max Altitude 14,600 ft / 4,450 m
Waypoints 3
Social Downloads 0
Likes 0
Share VATSIM

Download

Looking for another format? Having issues loading an existing format? Contact us
Advertisement - Login to hide

Notes

Basic altitude profile: - Ascent Rate: 2500ft/min - Ascent Speed: 250kts - Cruise Altitude: 35000ft - Cruise Speed: 420kts - Descent Rate: 1500ft/min - Descent Speed: 250kts Options: - Use NATs: no - Use PACOTS: no - Use low airways: yes - Use high airways: yes

Route

LFKB ABN LIMF

ID Type Via Altitude Latitude Longitude Leg Dist Tot Dist Heading (true) Name
O LFKB APT - 0 ft / 0 m 42.55251˚ 9.48371˚ - 0 nm - Bastia Poretta
ABN NDB - 14,600 ft / 4,450 m 44.05583˚ 8.22111˚ 105 nm 105 nm 329° / 328° ALBENGA NDB
O LIMF APT - 0 ft / 0 m 45.20076˚ 7.64963˚ 72 nm 178 nm 341° / 340° Torino Caselle

Altitude Profile

Advertisement - Login to hide

Weather


0- 5 10 15 20 25 30 35+ Temperature / ° C

Clouds and Precipitation
Forecast for 2017-12-15 18:00 UTC. Updated an hour ago

Ground ~20,000 ft ~40,000 ft Winds

LFKB

Details ICAO LFKB (BIA)
Name Bastia Poretta
Region France
Timezone Europe/Paris (UTC+1.0)
Stats Elevation 25 ft / 8 m (AMSL)
Location 42.552508° 9.483709°
Runways 1
Magnetic Variation 2.485° E

METAR

LFKB 151430Z AUTO 29005KT 250V340 9999 FEW060 OVC100 14/07 Q0999 NOSIG

Decode

TAF

TAF TAF LFKB 151400Z 1515/1615 VRB05KT 9999 SCT050 SCT100 BKN180 BECMG 1518/1519 24020G30KT BECMG 1602/1603 24006KT BECMG 1612/1615 34010KT PROB40 TEMPO 1612/1615 TSRA FEW020CB TX13/1515Z TN09/1603Z

Decode

Departure Runways

ID Width Length Bearing (true) Bearing (mag) Surface Threshold Offset Overrun Length
16 148 ft / 45 m 8,273 ft / 2,522 m 162.83° 160.34° Concrete 0 ft / 0 m 131 ft / 40 m
34 148 ft / 45 m 8,273 ft / 2,522 m 342.84° 340.35° Concrete 0 ft / 0 m 0 ft / 0 m

LIMF

Details ICAO LIMF (TRN)
Name Torino Caselle
Region Italy
Timezone Europe/Rome (UTC+1.0)
Stats Elevation 989 ft / 301 m (AMSL)
Location 45.200763° 7.649630°
Runways 1
Magnetic Variation 2.122° E

METAR

LIMF 151420Z VRB01KT CAVOK 07/M01 Q0998

Decode

TAF

TAF LIMF 151100Z 1512/1612 VRB05KT 9999 SCT100

Decode

Destination Runways

ID Width Length Bearing (true) Bearing (mag) Surface Threshold Offset Overrun Length
18 197 ft / 60 m 10,835 ft / 3,303 m 182.56° 180.44° Asphalt 2,378 ft / 725 m 970 ft / 296 m
36 197 ft / 60 m 10,835 ft / 3,303 m 2.56° 0.44° Asphalt 1,148 ft / 350 m 0 ft / 0 m

Approach Navaids

Runway Type Ident Frequency Range Bearing (true) Bearing (mag) Slope Elevation
36 Localiser ITOC 108.70 MHz 18 nm / 33 km 2.56° 0.44° - 989 ft / 301 m (AMSL)
36 Glidescope ITOC 108.70 MHz 10 nm / 19 km 2.56° 0.44° 3.00° 989 ft / 301 m (AMSL)
36 DME ITOC 108.70 MHz 25 nm / 46 km - - - 989 ft / 301 m (AMSL)